Global Endeavor — 3EOJ9 — position and weather

sailwx.info

Track history (hours):
 
Tides and Currents Weather Stations Pressure Air Temp Water Temp Dewpoint Dewpoint Depression Visibility Wind Speed Wind Dir Waves Ship Positions

Global Endeavor

Last reported at 2015-Jul-28 21:30 UTC. Time now 2015-Aug-01 07:47 UTC.
Position N 33°56' E 125°01'.

Length 175 m; draft 6.2 m.

Type: Cargo ship. MMSI: 356619000.

Date/timePositionNaut miles runAvg speedWind from/ knotsBaromVisibWave heightAir tempDewpointWater temp
2015-Jul-28 21:30N 33°56' E 125°01'1212.7
2015-Jul-28 20:33N 34°01' E 124°48'1313.0
2015-Jul-28 19:32N 34°06' E 124°33'1313.0
2015-Jul-28 18:33N 34°12' E 124°19'1312.8
2015-Jul-28 17:33N 34°17' E 124°05'21211.8
2015-Jul-27 23:32N 35°07' E 119°54'1211.9
2015-Jul-27 22:33N 35°04' E 119°40'9 9.6
2015-Jul-27 21:33N 35°03' E 119°29'6 2.7
2015-Jul-27 19:22N 35°06' E 119°22'0 0.0
2015-Jul-27 18:10N 35°06' E 119°22'0 0.0
2015-Jul-27 16:10N 35°06' E 119°22'0 0.0
2015-Jul-27 15:22N 35°06' E 119°22'0 0.0
2015-Jul-27 14:04N 35°06' E 119°22'0 0.0
2015-Jul-27 13:28N 35°06' E 119°22'0 0.0
2015-Jul-27 12:28N 35°06' E 119°22'0 0.0
2015-Jul-27 11:16N 35°06' E 119°22'0 0.0
2015-Jul-27 10:16N 35°06' E 119°22'0 0.0
2015-Jul-27 09:28N 35°06' E 119°22'0 0.0
2015-Jul-27 08:10N 35°06' E 119°22'0 0.0
2015-Jul-27 07:28N 35°06' E 119°22'0 0.0
2015-Jul-27 04:22N 35°06' E 119°22'0 0.0
2015-Jul-27 03:22N 35°06' E 119°22'0 0.0
2015-Jul-27 02:22N 35°06' E 119°22'0 0.0
2015-Jul-27 01:28N 35°06' E 119°22'0 0.0
2015-Jul-27 00:22N 35°06' E 119°22'0 0.0
2015-Jul-26 23:28N 35°06' E 119°22'0 0.0
2015-Jul-26 22:28N 35°06' E 119°22'0 0.0
2015-Jul-26 20:28N 35°06' E 119°22'0 0.0
2015-Jul-26 19:22N 35°06' E 119°22'0 0.1
2015-Jul-26 18:28N 35°06' E 119°22'0 0.0
2015-Jul-26 17:10N 35°06' E 119°22'0 0.0
2015-Jul-26 14:28N 35°06' E 119°22'0 0.0
2015-Jul-26 13:16N 35°06' E 119°22'0 0.0
2015-Jul-26 11:28N 35°06' E 119°22'0 0.0
2015-Jul-26 10:28N 35°06' E 119°22'0 0.0
2015-Jul-26 09:22N 35°06' E 119°22'0 0.1
2015-Jul-26 08:28N 35°06' E 119°22'0 0.0
2015-Jul-26 07:22N 35°06' E 119°22'0 0.0
2015-Jul-26 05:28N 35°06' E 119°22'0 0.0
2015-Jul-26 04:10N 35°06' E 119°22'0 0.0
2015-Jul-26 03:28N 35°06' E 119°22'0 0.0
2015-Jul-26 02:16N 35°06' E 119°22'0 0.0
2015-Jul-26 01:22N 35°06' E 119°22'0 0.0
2015-Jul-25 23:28N 35°06' E 119°22'0 0.0
2015-Jul-25 22:28N 35°06' E 119°22'0 0.0
2015-Jul-25 21:22N 35°06' E 119°22'0 0.0
2015-Jul-25 20:16N 35°06' E 119°22'0 0.0
2015-Jul-25 18:22N 35°06' E 119°22'0 0.0
2015-Jul-25 15:28N 35°06' E 119°22'0 0.0
2015-Jul-25 14:16N 35°06' E 119°22'0 0.0
2015-Jul-25 13:16N 35°06' E 119°22'0 0.0
2015-Jul-25 12:28N 35°06' E 119°22'0 0.0
2015-Jul-25 11:28N 35°06' E 119°22'0 0.0
2015-Jul-25 10:16N 35°06' E 119°22'0 0.0
2015-Jul-25 09:22N 35°06' E 119°22'0 0.0
2015-Jul-25 08:22N 35°06' E 119°22'0 0.1
2015-Jul-25 07:28N 35°06' E 119°22'0 0.0
2015-Jul-25 04:10N 35°06' E 119°22'0 0.0
2015-Jul-25 00:28N 35°06' E 119°22'0 0.0
2015-Jul-24 23:22N 35°06' E 119°22'0 0.0
2015-Jul-24 22:28N 35°06' E 119°22'0 0.0
2015-Jul-24 21:22N 35°06' E 119°22'0 0.0
2015-Jul-24 20:22N 35°06' E 119°22'0 0.0
2015-Jul-24 19:04N 35°06' E 119°22'0 0.0
2015-Jul-24 18:28N 35°06' E 119°22'0 0.0
2015-Jul-24 15:04N 35°06' E 119°22'0 0.0
2015-Jul-24 08:04N 35°06' E 119°22'0 0.0
2015-Jul-24 05:28N 35°06' E 119°22'0 0.0
2015-Jul-24 04:22N 35°06' E 119°22'3 3.5
2015-Jul-24 03:33N 35°04' E 119°25'10 9.6
2015-Jul-24 02:33N 35°04' E 119°36'3 3.0
2015-Jul-24 01:33N 35°06' E 119°39'0 0.1
2015-Jul-24 00:33N 35°06' E 119°39'0 0.0
2015-Jul-23 23:33N 35°06' E 119°39'0 0.1
2015-Jul-23 22:32N 35°06' E 119°39'0 0.1
2015-Jul-23 21:26N 35°06' E 119°39'0 0.0
2015-Jul-23 20:26N 35°06' E 119°39'0 0.0
2015-Jul-23 19:20N 35°06' E 119°39'0 0.1
2015-Jul-23 18:32N 35°06' E 119°40'0 0.0
2015-Jul-23 17:26N 35°06' E 119°40'0 0.0
2015-Jul-23 16:32N 35°06' E 119°40'0 0.1
2015-Jul-23 15:26N 35°06' E 119°39'0 0.1
2015-Jul-23 14:32N 35°06' E 119°39'0 0.1
2015-Jul-23 13:32N 35°06' E 119°39'0 0.0
2015-Jul-23 12:32N 35°06' E 119°39'0 0.0
2015-Jul-23 11:32N 35°06' E 119°39'0 0.1
2015-Jul-23 10:32N 35°06' E 119°39'0 0.1
2015-Jul-23 09:26N 35°06' E 119°39'0 0.1
2015-Jul-23 08:32N 35°06' E 119°39'0 0.0
2015-Jul-23 07:32N 35°06' E 119°39'0 0.1
2015-Jul-23 06:32N 35°06' E 119°39'0 0.1
2015-Jul-23 05:26N 35°06' E 119°39'0 0.0
2015-Jul-23 04:26N 35°06' E 119°39'0 0.1
2015-Jul-23 03:32N 35°06' E 119°39'0 0.0
2015-Jul-23 02:32N 35°06' E 119°39'0 0.0
2015-Jul-23 01:32N 35°06' E 119°39'0 0.0
2015-Jul-23 00:32N 35°06' E 119°39'0 0.0
2015-Jul-22 23:32N 35°06' E 119°39'0 0.1
2015-Jul-22 22:32N 35°06' E 119°39'0 0.1
2015-Jul-22 21:32N 35°06' E 119°39'0 0.0
2015-Jul-22 20:26N 35°06' E 119°39'0 0.0
2015-Jul-22 19:32N 35°06' E 119°39'0 0.0
2015-Jul-22 18:32N 35°06' E 119°39'0 0.0
2015-Jul-22 17:32N 35°06' E 119°39'0 0.0
2015-Jul-22 16:32N 35°06' E 119°39'0 0.0
2015-Jul-22 15:32N 35°06' E 119°39'0 0.1
2015-Jul-22 14:32N 35°06' E 119°39'0 0.0
2015-Jul-22 13:33N 35°06' E 119°39'0 0.1
2015-Jul-22 12:33N 35°06' E 119°39'0 0.0
2015-Jul-22 11:33N 35°06' E 119°39'0 0.0
2015-Jul-22 10:27N 35°06' E 119°39'0 0.1
2015-Jul-22 09:33N 35°06' E 119°39'0 0.0
2015-Jul-22 08:15N 35°06' E 119°39'0 0.0
2015-Jul-22 07:33N 35°06' E 119°39'0 0.1
2015-Jul-22 06:33N 35°06' E 119°39'0 0.1
2015-Jul-22 05:33N 35°06' E 119°39'0 0.1
2015-Jul-22 04:33N 35°06' E 119°39'0 0.0
2015-Jul-22 03:33N 35°06' E 119°39'0 0.1
2015-Jul-22 02:33N 35°06' E 119°39'0 0.0
2015-Jul-22 01:33N 35°06' E 119°39'0 0.0
2015-Jul-22 00:33N 35°06' E 119°39'0 0.0
2015-Jul-21 23:33N 35°06' E 119°39'0 0.1
2015-Jul-21 22:33N 35°06' E 119°39'0 0.1
2015-Jul-21 21:27N 35°06' E 119°39'0 0.1
2015-Jul-21 20:33N 35°06' E 119°39'0 0.1
2015-Jul-21 19:33N 35°06' E 119°39'0 0.0
2015-Jul-21 18:33N 35°06' E 119°39'0 0.0
2015-Jul-21 17:33N 35°06' E 119°39'0 0.0
2015-Jul-21 16:33N 35°06' E 119°39'0 0.0
2015-Jul-21 15:33N 35°06' E 119°39'0 0.1
2015-Jul-21 14:33N 35°06' E 119°39'0 0.1
2015-Jul-21 13:33N 35°06' E 119°39'0 0.1
2015-Jul-21 12:27N 35°06' E 119°39'0 0.1
2015-Jul-21 11:33N 35°06' E 119°39'0 0.0
2015-Jul-21 10:33N 35°06' E 119°39'0 0.0
2015-Jul-21 09:33N 35°06' E 119°39'0 0.1
2015-Jul-21 08:26N 35°06' E 119°39'0 0.1
2015-Jul-21 07:26N 35°06' E 119°39'0 0.1
2015-Jul-21 06:32N 35°06' E 119°40'4 3.7
2015-Jul-21 05:33N 35°06' E 119°44'8 7.5
2015-Jul-21 04:30N 35°06' E 119°54'  
Track history (hours):
 
Tides and Currents Weather Stations Pressure Air Temp Water Temp Dewpoint Dewpoint Depression Visibility Wind Speed Wind Dir Waves Ship Positions

Global Endeavor

Last reported at 2015-Jul-28 21:30 UTC. Time now 2015-Aug-01 07:47 UTC.
Position N 33°56' E 125°01'.

Length 175 m; draft 6.2 m.

Type: Cargo ship. MMSI: 356619000.

Date/timePositionNaut miles runAvg speedWind from/ knotsBaromVisibWave heightAir tempDewpointWater temp
2015-Jul-28 21:30N 33°56' E 125°01'1212.7
2015-Jul-28 20:33N 34°01' E 124°48'1313.0
2015-Jul-28 19:32N 34°06' E 124°33'1313.0
2015-Jul-28 18:33N 34°12' E 124°19'1312.8
2015-Jul-28 17:33N 34°17' E 124°05'21211.8
2015-Jul-27 23:32N 35°07' E 119°54'1211.9
2015-Jul-27 22:33N 35°04' E 119°40'9 9.6
2015-Jul-27 21:33N 35°03' E 119°29'6 2.7
2015-Jul-27 19:22N 35°06' E 119°22'0 0.0
2015-Jul-27 18:10N 35°06' E 119°22'0 0.0
2015-Jul-27 16:10N 35°06' E 119°22'0 0.0
2015-Jul-27 15:22N 35°06' E 119°22'0 0.0
2015-Jul-27 14:04N 35°06' E 119°22'0 0.0
2015-Jul-27 13:28N 35°06' E 119°22'0 0.0
2015-Jul-27 12:28N 35°06' E 119°22'0 0.0
2015-Jul-27 11:16N 35°06' E 119°22'0 0.0
2015-Jul-27 10:16N 35°06' E 119°22'0 0.0
2015-Jul-27 09:28N 35°06' E 119°22'0 0.0
2015-Jul-27 08:10N 35°06' E 119°22'0 0.0
2015-Jul-27 07:28N 35°06' E 119°22'0 0.0
2015-Jul-27 04:22N 35°06' E 119°22'0 0.0
2015-Jul-27 03:22N 35°06' E 119°22'0 0.0
2015-Jul-27 02:22N 35°06' E 119°22'0 0.0
2015-Jul-27 01:28N 35°06' E 119°22'0 0.0
2015-Jul-27 00:22N 35°06' E 119°22'0 0.0
2015-Jul-26 23:28N 35°06' E 119°22'0 0.0
2015-Jul-26 22:28N 35°06' E 119°22'0 0.0
2015-Jul-26 20:28N 35°06' E 119°22'0 0.0
2015-Jul-26 19:22N 35°06' E 119°22'0 0.1
2015-Jul-26 18:28N 35°06' E 119°22'0 0.0
2015-Jul-26 17:10N 35°06' E 119°22'0 0.0
2015-Jul-26 14:28N 35°06' E 119°22'0 0.0
2015-Jul-26 13:16N 35°06' E 119°22'0 0.0
2015-Jul-26 11:28N 35°06' E 119°22'0 0.0
2015-Jul-26 10:28N 35°06' E 119°22'0 0.0
2015-Jul-26 09:22N 35°06' E 119°22'0 0.1
2015-Jul-26 08:28N 35°06' E 119°22'0 0.0
2015-Jul-26 07:22N 35°06' E 119°22'0 0.0
2015-Jul-26 05:28N 35°06' E 119°22'0 0.0
2015-Jul-26 04:10N 35°06' E 119°22'0 0.0
2015-Jul-26 03:28N 35°06' E 119°22'0 0.0
2015-Jul-26 02:16N 35°06' E 119°22'0 0.0
2015-Jul-26 01:22N 35°06' E 119°22'0 0.0
2015-Jul-25 23:28N 35°06' E 119°22'0 0.0
2015-Jul-25 22:28N 35°06' E 119°22'0 0.0
2015-Jul-25 21:22N 35°06' E 119°22'0 0.0
2015-Jul-25 20:16N 35°06' E 119°22'0 0.0
2015-Jul-25 18:22N 35°06' E 119°22'0 0.0
2015-Jul-25 15:28N 35°06' E 119°22'0 0.0
2015-Jul-25 14:16N 35°06' E 119°22'0 0.0
2015-Jul-25 13:16N 35°06' E 119°22'0 0.0
2015-Jul-25 12:28N 35°06' E 119°22'0 0.0
2015-Jul-25 11:28N 35°06' E 119°22'0 0.0
2015-Jul-25 10:16N 35°06' E 119°22'0 0.0
2015-Jul-25 09:22N 35°06' E 119°22'0 0.0
2015-Jul-25 08:22N 35°06' E 119°22'0 0.1
2015-Jul-25 07:28N 35°06' E 119°22'0 0.0
2015-Jul-25 04:10N 35°06' E 119°22'0 0.0
2015-Jul-25 00:28N 35°06' E 119°22'0 0.0
2015-Jul-24 23:22N 35°06' E 119°22'0 0.0
2015-Jul-24 22:28N 35°06' E 119°22'0 0.0
2015-Jul-24 21:22N 35°06' E 119°22'0 0.0
2015-Jul-24 20:22N 35°06' E 119°22'0 0.0
2015-Jul-24 19:04N 35°06' E 119°22'0 0.0
2015-Jul-24 18:28N 35°06' E 119°22'0 0.0
2015-Jul-24 15:04N 35°06' E 119°22'0 0.0
2015-Jul-24 08:04N 35°06' E 119°22'0 0.0
2015-Jul-24 05:28N 35°06' E 119°22'0 0.0
2015-Jul-24 04:22N 35°06' E 119°22'3 3.5
2015-Jul-24 03:33N 35°04' E 119°25'10 9.6
2015-Jul-24 02:33N 35°04' E 119°36'3 3.0
2015-Jul-24 01:33N 35°06' E 119°39'0 0.1
2015-Jul-24 00:33N 35°06' E 119°39'0 0.0
2015-Jul-23 23:33N 35°06' E 119°39'0 0.1
2015-Jul-23 22:32N 35°06' E 119°39'0 0.1
2015-Jul-23 21:26N 35°06' E 119°39'0 0.0
2015-Jul-23 20:26N 35°06' E 119°39'0 0.0
2015-Jul-23 19:20N 35°06' E 119°39'0 0.1
2015-Jul-23 18:32N 35°06' E 119°40'0 0.0
2015-Jul-23 17:26N 35°06' E 119°40'0 0.0
2015-Jul-23 16:32N 35°06' E 119°40'0 0.1
2015-Jul-23 15:26N 35°06' E 119°39'0 0.1
2015-Jul-23 14:32N 35°06' E 119°39'0 0.1
2015-Jul-23 13:32N 35°06' E 119°39'0 0.0
2015-Jul-23 12:32N 35°06' E 119°39'0 0.0
2015-Jul-23 11:32N 35°06' E 119°39'0 0.1
2015-Jul-23 10:32N 35°06' E 119°39'0 0.1
2015-Jul-23 09:26N 35°06' E 119°39'0 0.1
2015-Jul-23 08:32N 35°06' E 119°39'0 0.0
2015-Jul-23 07:32N 35°06' E 119°39'0 0.1
2015-Jul-23 06:32N 35°06' E 119°39'0 0.1
2015-Jul-23 05:26N 35°06' E 119°39'0 0.0
2015-Jul-23 04:26N 35°06' E 119°39'0 0.1
2015-Jul-23 03:32N 35°06' E 119°39'0 0.0
2015-Jul-23 02:32N 35°06' E 119°39'0 0.0
2015-Jul-23 01:32N 35°06' E 119°39'0 0.0
2015-Jul-23 00:32N 35°06' E 119°39'0 0.0
2015-Jul-22 23:32N 35°06' E 119°39'0 0.1
2015-Jul-22 22:32N 35°06' E 119°39'0 0.1
2015-Jul-22 21:32N 35°06' E 119°39'0 0.0
2015-Jul-22 20:26N 35°06' E 119°39'0 0.0
2015-Jul-22 19:32N 35°06' E 119°39'0 0.0
2015-Jul-22 18:32N 35°06' E 119°39'0 0.0
2015-Jul-22 17:32N 35°06' E 119°39'0 0.0
2015-Jul-22 16:32N 35°06' E 119°39'0 0.0
2015-Jul-22 15:32N 35°06' E 119°39'0 0.1
2015-Jul-22 14:32N 35°06' E 119°39'0 0.0
2015-Jul-22 13:33N 35°06' E 119°39'0 0.1
2015-Jul-22 12:33N 35°06' E 119°39'0 0.0
2015-Jul-22 11:33N 35°06' E 119°39'0 0.0
2015-Jul-22 10:27N 35°06' E 119°39'0 0.1
2015-Jul-22 09:33N 35°06' E 119°39'0 0.0
2015-Jul-22 08:15N 35°06' E 119°39'0 0.0
2015-Jul-22 07:33N 35°06' E 119°39'0 0.1
2015-Jul-22 06:33N 35°06' E 119°39'0 0.1
2015-Jul-22 05:33N 35°06' E 119°39'0 0.1
2015-Jul-22 04:33N 35°06' E 119°39'0 0.0
2015-Jul-22 03:33N 35°06' E 119°39'0 0.1
2015-Jul-22 02:33N 35°06' E 119°39'0 0.0
2015-Jul-22 01:33N 35°06' E 119°39'0 0.0
2015-Jul-22 00:33N 35°06' E 119°39'0 0.0
2015-Jul-21 23:33N 35°06' E 119°39'0 0.1
2015-Jul-21 22:33N 35°06' E 119°39'0 0.1
2015-Jul-21 21:27N 35°06' E 119°39'0 0.1
2015-Jul-21 20:33N 35°06' E 119°39'0 0.1
2015-Jul-21 19:33N 35°06' E 119°39'0 0.0
2015-Jul-21 18:33N 35°06' E 119°39'0 0.0
2015-Jul-21 17:33N 35°06' E 119°39'0 0.0
2015-Jul-21 16:33N 35°06' E 119°39'0 0.0
2015-Jul-21 15:33N 35°06' E 119°39'0 0.1
2015-Jul-21 14:33N 35°06' E 119°39'0 0.1
2015-Jul-21 13:33N 35°06' E 119°39'0 0.1
2015-Jul-21 12:27N 35°06' E 119°39'0 0.1
2015-Jul-21 11:33N 35°06' E 119°39'0 0.0
2015-Jul-21 10:33N 35°06' E 119°39'0 0.0
2015-Jul-21 09:33N 35°06' E 119°39'0 0.1
2015-Jul-21 08:26N 35°06' E 119°39'0 0.1
2015-Jul-21 07:26N 35°06' E 119°39'0 0.1
2015-Jul-21 06:32N 35°06' E 119°40'4 3.7
2015-Jul-21 05:33N 35°06' E 119°44'8 7.5
2015-Jul-21 04:30N 35°06' E 119°54'  

Dump ship's entire track history